createdAt,value
2022-09-03T00:03:58.624Z,1.1
2022-09-03T00:10:18.543Z,1.1
2022-09-03T00:16:41.547Z,0.8
2022-09-03T00:23:01.487Z,0.8
2022-09-03T00:29:24.547Z,0.9
2022-09-03T00:35:44.532Z,0.9
2022-09-03T00:42:07.488Z,0.3
2022-09-03T00:48:27.849Z,0.3
2022-09-03T00:54:50.568Z,0.6
2022-09-03T01:01:10.598Z,0.6
2022-09-03T01:07:33.490Z,1
2022-09-03T01:13:53.541Z,1
2022-09-03T01:20:16.575Z,0.2
2022-09-03T01:26:36.506Z,0.2
2022-09-03T01:32:59.531Z,1.3
2022-09-03T01:39:19.531Z,1.3
2022-09-03T01:45:45.170Z,1.2
2022-09-03T01:52:02.555Z,1.2
2022-09-03T01:58:25.543Z,1.1
2022-09-03T02:04:45.509Z,1.1
2022-09-03T02:11:08.508Z,0.9
2022-09-03T02:17:28.491Z,0.9
2022-09-03T02:23:51.486Z,0.6
2022-09-03T02:30:11.505Z,0.6
2022-09-03T02:36:34.510Z,0.4
2022-09-03T02:42:54.618Z,0.4
2022-09-03T02:49:17.475Z,0.1
2022-09-03T02:55:37.483Z,0.1
2022-09-03T03:02:01.148Z,0.7
2022-09-03T03:08:20.472Z,0.7
2022-09-03T03:14:43.540Z,0.6
2022-09-03T03:21:03.504Z,0.6
2022-09-03T03:27:26.522Z,0.6
2022-09-03T03:33:46.559Z,0.6
2022-09-03T03:56:17.445Z,1
2022-09-03T04:02:39.219Z,1
2022-09-03T04:09:00.517Z,1
2022-09-03T04:15:20.459Z,1
2022-09-03T04:21:43.506Z,0.6
2022-09-03T04:28:03.596Z,0.6
2022-09-03T04:34:26.482Z,0.8
2022-09-03T04:40:46.526Z,0.8
2022-09-03T04:47:09.501Z,0.5
2022-09-03T04:53:29.507Z,0.5
2022-09-03T04:59:52.565Z,0.3
2022-09-03T05:06:12.492Z,0.3
2022-09-03T05:12:35.468Z,0.6
2022-09-03T05:18:55.517Z,0.6
2022-09-03T05:25:18.494Z,0.7
2022-09-03T05:31:38.576Z,0.7
2022-09-03T05:38:01.507Z,0.8
2022-09-03T05:44:21.520Z,0.8
2022-09-03T05:50:44.474Z,0.2
2022-09-03T05:57:04.472Z,0.2
2022-09-03T06:03:27.749Z,0.8
2022-09-03T06:09:47.472Z,0.8
2022-09-03T06:16:10.594Z,0.7
2022-09-03T06:22:30.519Z,0.7
2022-09-03T06:28:53.490Z,0.8
2022-09-03T06:35:13.534Z,0.8
2022-09-03T06:41:36.497Z,0.8
2022-09-03T06:47:56.530Z,0.8
2022-09-03T06:54:19.517Z,0.9
2022-09-03T07:00:39.574Z,0.9
2022-09-03T07:07:02.550Z,0.7
2022-09-03T07:13:22.505Z,0.7
2022-09-03T07:19:45.474Z,1.2
2022-09-03T07:26:05.511Z,1.2
2022-09-03T07:32:28.541Z,0.9
2022-09-03T07:38:48.560Z,0.9
2022-09-03T07:45:11.536Z,0.6
2022-09-03T07:51:31.650Z,0.6
2022-09-03T07:57:54.514Z,0.5
2022-09-03T08:04:14.576Z,0.5
2022-09-03T08:10:37.572Z,1.5
2022-09-03T08:16:57.552Z,1.5
2022-09-03T08:23:20.624Z,0.7
2022-09-03T08:29:40.581Z,0.7
2022-09-03T08:36:03.573Z,0.8
2022-09-03T08:42:23.614Z,0.8
2022-09-03T08:48:46.522Z,0.9
2022-09-03T08:55:06.544Z,0.9
2022-09-03T09:01:29.606Z,1.9
2022-09-03T09:07:49.577Z,1.9
2022-09-03T09:31:51.038Z,1.2
2022-09-03T09:38:10.491Z,1.2
2022-09-03T09:44:33.565Z,0.5
2022-09-03T09:50:53.557Z,0.5
2022-09-03T09:57:16.494Z,1.7
2022-09-03T10:03:36.536Z,1.7
2022-09-03T10:09:59.483Z,1.1
2022-09-03T10:16:19.734Z,1.1
2022-09-03T10:22:42.513Z,0.4
2022-09-03T10:29:02.482Z,0.4
2022-09-03T10:35:25.580Z,0.8
2022-09-03T10:41:45.490Z,0.8
2022-09-03T10:48:08.559Z,1.1
2022-09-03T10:54:28.502Z,1.1
2022-09-03T11:00:51.557Z,1.5
2022-09-03T11:07:11.588Z,1.5
2022-09-03T11:13:34.525Z,1
2022-09-03T11:19:54.537Z,1
2022-09-03T11:26:17.533Z,0.5
2022-09-03T11:32:37.496Z,0.5
2022-09-03T11:39:00.573Z,3.3
2022-09-03T11:45:20.489Z,3.3
2022-09-03T11:51:43.550Z,2.1
2022-09-03T11:58:03.559Z,2.1
2022-09-03T12:04:26.555Z,1.6
2022-09-03T12:10:46.519Z,1.6
2022-09-03T12:17:09.472Z,0.9
2022-09-03T12:23:29.516Z,0.9
2022-09-03T12:29:52.481Z,1.6
2022-09-03T12:36:12.498Z,1.6
2022-09-03T12:42:35.499Z,0.7
2022-09-03T12:55:18.527Z,1.4
2022-09-03T13:01:38.602Z,1.4
2022-09-03T13:08:01.501Z,1.2
2022-09-03T13:14:21.516Z,1.2
2022-09-03T13:20:44.478Z,0.6
2022-09-03T13:27:04.507Z,0.6
2022-09-03T13:33:29.381Z,1
2022-09-03T13:39:47.559Z,1
2022-09-03T13:46:10.561Z,0.6
2022-09-03T13:52:30.471Z,0.6
2022-09-03T13:58:53.538Z,0.7
2022-09-03T14:05:13.483Z,0.7
2022-09-03T14:11:36.522Z,0.9
2022-09-03T14:17:56.507Z,0.9
2022-09-03T14:24:19.470Z,0.9
2022-09-03T14:30:39.540Z,0.9
2022-09-03T14:37:02.471Z,0.2
2022-09-03T14:43:22.524Z,0.2
2022-09-03T14:49:45.501Z,1.5
2022-09-03T14:56:05.462Z,1.5
2022-09-03T15:12:51.158Z,0.9
2022-09-03T15:19:11.492Z,0.9
2022-09-03T15:25:34.471Z,1.3
2022-09-03T15:31:54.605Z,1.3
2022-09-03T15:38:17.469Z,1.3
2022-09-03T15:44:37.503Z,1.3
2022-09-03T15:51:00.479Z,1
2022-09-03T15:57:20.468Z,1
2022-09-03T16:03:43.578Z,1.3
2022-09-03T16:10:23.576Z,1.3
2022-09-03T16:16:26.617Z,1
2022-09-03T16:22:46.480Z,1
2022-09-03T16:29:09.479Z,0.9
2022-09-03T16:35:29.524Z,0.9
2022-09-03T16:41:52.479Z,0.9
2022-09-03T16:48:12.522Z,0.9
2022-09-03T16:54:35.477Z,0.9
2022-09-03T17:00:55.579Z,0.9
2022-09-03T17:07:18.519Z,0.3
2022-09-03T17:13:38.465Z,0.3
2022-09-03T17:20:01.484Z,0.4
2022-09-03T17:26:21.535Z,0.4
2022-09-03T17:32:44.481Z,0.7
2022-09-03T17:39:04.525Z,0.7
2022-09-03T17:45:27.477Z,1.3
2022-09-03T17:51:47.509Z,1.3
2022-09-03T17:58:11.722Z,0.4
2022-09-03T18:04:31.504Z,0.4
2022-09-03T18:10:54.528Z,1
2022-09-03T18:17:14.454Z,1
2022-09-03T18:23:37.519Z,1.1
2022-09-03T18:29:57.452Z,1.1
2022-09-03T18:36:20.456Z,0.8
2022-09-03T18:42:40.502Z,0.8
2022-09-03T18:49:03.526Z,0.7
2022-09-03T18:55:23.505Z,0.7
2022-09-03T19:01:46.640Z,1
2022-09-03T19:08:06.483Z,1
2022-09-03T19:14:29.711Z,0.8
2022-09-03T19:20:49.688Z,0.8
2022-09-03T19:27:30.167Z,0.9
2022-09-03T19:33:32.453Z,0.9
2022-09-03T19:39:55.736Z,0.7
2022-09-03T19:46:15.493Z,0.7
2022-09-03T19:52:38.494Z,1
2022-09-03T19:58:58.489Z,1
2022-09-03T20:05:21.454Z,1.8
2022-09-03T20:11:41.505Z,1.8
2022-09-03T20:18:04.472Z,1.7
2022-09-03T20:24:24.514Z,1.7
2022-09-03T20:30:47.559Z,1.3
2022-09-03T20:37:07.479Z,1.3
2022-09-03T21:00:31.606Z,3.3
2022-09-03T21:06:54.465Z,3.3
2022-09-03T21:13:14.464Z,3.3
2022-09-03T21:19:37.499Z,1
2022-09-03T21:25:57.456Z,1
2022-09-03T21:32:20.507Z,2.3
2022-09-03T21:38:40.476Z,2.3
2022-09-03T21:45:03.471Z,2.6
2022-09-03T21:51:23.520Z,2.6
2022-09-03T21:57:46.469Z,1.3
2022-09-03T22:22:00.489Z,2.9
2022-09-03T22:28:20.478Z,2.9
2022-09-03T22:34:43.456Z,2.9
2022-09-03T22:41:03.503Z,2.9
2022-09-03T22:47:26.553Z,1.6
2022-09-03T22:53:46.532Z,1.6
2022-09-03T23:00:09.457Z,2.7
2022-09-03T23:06:29.518Z,2.7
2022-09-03T23:12:52.466Z,1.2
2022-09-03T23:19:10.480Z,1.2
2022-09-03T23:25:31.482Z,2.4
2022-09-03T23:31:51.565Z,2.4
2022-09-03T23:38:14.468Z,1.6
2022-09-03T23:44:34.479Z,1.6
2022-09-03T23:50:57.496Z,1.3
2022-09-03T23:57:17.461Z,1.3
